sensor_id;sensor_type;location;lat;lon;timestamp;pressure;altitude;pressure_sealevel;temperature;humidity
48077;BME280;33854;57.708;12.008;2022-11-15T00:01:34;101427.50;;;8.42;100.00
48077;BME280;33854;57.708;12.008;2022-11-15T00:04:03;101412.03;;;8.36;100.00
48077;BME280;33854;57.708;12.008;2022-11-15T00:06:28;101411.16;;;8.37;100.00
48077;BME280;33854;57.708;12.008;2022-11-15T00:08:53;101410.34;;;8.35;100.00
48077;BME280;33854;57.708;12.008;2022-11-15T00:11:19;101409.44;;;8.36;100.00
48077;BME280;33854;57.708;12.008;2022-11-15T00:13:44;101408.47;;;8.40;100.00
48077;BME280;33854;57.708;12.008;2022-11-15T00:16:09;101404.25;;;8.36;100.00
48077;BME280;33854;57.708;12.008;2022-11-15T00:18:36;101404.22;;;8.37;100.00
48077;BME280;33854;57.708;12.008;2022-11-15T00:21:07;101398.25;;;8.34;100.00
48077;BME280;33854;57.708;12.008;2022-11-15T00:23:34;101409.53;;;8.33;100.00
48077;BME280;33854;57.708;12.008;2022-11-15T00:25:59;101409.53;;;8.33;100.00
48077;BME280;33854;57.708;12.008;2022-11-15T00:28:25;101403.50;;;8.31;100.00
48077;BME280;33854;57.708;12.008;2022-11-15T00:30:50;101395.66;;;8.32;100.00
48077;BME280;33854;57.708;12.008;2022-11-15T00:33:16;101387.13;;;8.27;100.00
48077;BME280;33854;57.708;12.008;2022-11-15T00:35:41;101392.19;;;8.33;100.00
48077;BME280;33854;57.708;12.008;2022-11-15T00:38:07;101389.63;;;8.32;100.00
48077;BME280;33854;57.708;12.008;2022-11-15T00:40:32;101385.41;;;8.26;100.00
48077;BME280;33854;57.708;12.008;2022-11-15T00:42:58;101383.63;;;8.27;100.00
48077;BME280;33854;57.708;12.008;2022-11-15T00:45:24;101370.69;;;8.25;100.00
48077;BME280;33854;57.708;12.008;2022-11-15T00:47:50;101364.69;;;8.23;100.00
48077;BME280;33854;57.708;12.008;2022-11-15T00:50:16;101356.06;;;8.21;100.00
48077;BME280;33854;57.708;12.008;2022-11-15T00:52:42;101360.25;;;8.27;100.00
48077;BME280;33854;57.708;12.008;2022-11-15T00:55:12;101354.16;;;8.29;100.00
48077;BME280;33854;57.708;12.008;2022-11-15T00:57:38;101359.25;;;8.32;100.00
48077;BME280;33854;57.708;12.008;2022-11-15T01:00:04;101349.91;;;8.25;100.00
48077;BME280;33854;57.708;12.008;2022-11-15T01:02:30;101350.69;;;8.29;100.00
48077;BME280;33854;57.708;12.008;2022-11-15T01:04:55;101340.25;;;8.30;100.00
48077;BME280;33854;57.708;12.008;2022-11-15T01:07:21;101349.78;;;8.30;100.00
48077;BME280;33854;57.708;12.008;2022-11-15T01:09:46;101336.19;;;8.19;100.00
48077;BME280;33854;57.708;12.008;2022-11-15T01:12:11;101333.56;;;8.20;100.00
48077;BME280;33854;57.708;12.008;2022-11-15T01:14:37;101344.63;;;8.27;100.00
48077;BME280;33854;57.708;12.008;2022-11-15T01:17:02;101339.72;;;8.18;100.00
48077;BME280;33854;57.708;12.008;2022-11-15T01:19:27;101340.44;;;8.23;100.00
48077;BME280;33854;57.708;12.008;2022-11-15T01:21:53;101325.00;;;8.17;100.00
48077;BME280;33854;57.708;12.008;2022-11-15T01:24:18;101337.03;;;8.21;100.00
48077;BME280;33854;57.708;12.008;2022-11-15T01:26:43;101329.41;;;8.13;100.00
48077;BME280;33854;57.708;12.008;2022-11-15T01:29:09;101322.53;;;8.11;100.00
48077;BME280;33854;57.708;12.008;2022-11-15T01:31:34;101333.75;;;8.13;100.00
48077;BME280;33854;57.708;12.008;2022-11-15T01:34:00;101332.94;;;8.11;100.00
48077;BME280;33854;57.708;12.008;2022-11-15T01:36:25;101333.81;;;8.11;100.00
48077;BME280;33854;57.708;12.008;2022-11-15T01:38:54;101333.81;;;8.11;100.00
48077;BME280;33854;57.708;12.008;2022-11-15T01:41:28;101347.59;;;8.15;100.00
48077;BME280;33854;57.708;12.008;2022-11-15T01:44:31;101345.81;;;8.15;100.00
48077;BME280;33854;57.708;12.008;2022-11-15T01:46:46;101345.78;;;8.17;100.00
48077;BME280;33854;57.708;12.008;2022-11-15T01:49:21;101342.31;;;8.18;100.00
48077;BME280;33854;57.708;12.008;2022-11-15T01:51:47;101338.94;;;8.14;100.00
48077;BME280;33854;57.708;12.008;2022-11-15T01:54:16;101328.69;;;8.08;100.00
48077;BME280;33854;57.708;12.008;2022-11-15T01:57:09;101349.34;;;8.13;100.00
48077;BME280;33854;57.708;12.008;2022-11-15T01:59:37;101339.81;;;8.13;100.00
48077;BME280;33854;57.708;12.008;2022-11-15T02:02:04;101322.63;;;8.08;100.00
48077;BME280;33854;57.708;12.008;2022-11-15T02:04:32;101318.28;;;8.08;100.00
48077;BME280;33854;57.708;12.008;2022-11-15T02:06:59;101320.16;;;8.03;100.00
48077;BME280;33854;57.708;12.008;2022-11-15T02:09:27;101334.75;;;8.09;100.00
48077;BME280;33854;57.708;12.008;2022-11-15T02:11:54;101326.03;;;8.10;100.00
48077;BME280;33854;57.708;12.008;2022-11-15T02:14:21;101322.63;;;8.08;100.00
48077;BME280;33854;57.708;12.008;2022-11-15T02:25:23;101330.56;;;8.03;100.00
48077;BME280;33854;57.708;12.008;2022-11-15T02:31:03;101330.44;;;8.08;100.00
48077;BME280;33854;57.708;12.008;2022-11-15T02:36:14;101311.59;;;7.99;100.00
48077;BME280;33854;57.708;12.008;2022-11-15T02:38:47;101303.81;;;7.98;100.00
48077;BME280;33854;57.708;12.008;2022-11-15T02:43:57;101304.66;;;8.00;100.00
48077;BME280;33854;57.708;12.008;2022-11-15T02:46:58;101304.56;;;8.03;100.00
48077;BME280;33854;57.708;12.008;2022-11-15T02:49:49;101302.91;;;8.00;100.00
48077;BME280;33854;57.708;12.008;2022-11-15T02:52:20;101305.53;;;7.99;100.00
48077;BME280;33854;57.708;12.008;2022-11-15T02:54:58;101302.13;;;7.97;100.00
48077;BME280;33854;57.708;12.008;2022-11-15T02:57:45;101304.66;;;8.00;100.00
48077;BME280;33854;57.708;12.008;2022-11-15T03:00:18;101302.84;;;8.02;100.00
48077;BME280;33854;57.708;12.008;2022-11-15T03:08:52;101321.94;;;8.01;100.00
48077;BME280;33854;57.708;12.008;2022-11-15T03:11:22;101308.97;;;7.99;100.00
48077;BME280;33854;57.708;12.008;2022-11-15T03:19:50;101310.03;;;7.92;100.00
48077;BME280;33854;57.708;12.008;2022-11-15T03:22:19;101304.81;;;7.92;100.00
48077;BME280;33854;57.708;12.008;2022-11-15T03:24:48;101283.38;;;7.84;100.00
48077;BME280;33854;57.708;12.008;2022-11-15T03:27:17;101299.63;;;7.92;100.00
48077;BME280;33854;57.708;12.008;2022-11-15T03:29:49;101306.59;;;7.92;100.00
48077;BME280;33854;57.708;12.008;2022-11-15T03:32:22;101305.81;;;7.88;100.00
48077;BME280;33854;57.708;12.008;2022-11-15T03:34:55;101306.63;;;7.90;100.00
48077;BME280;33854;57.708;12.008;2022-11-15T03:37:27;101302.19;;;7.94;100.00
48077;BME280;33854;57.708;12.008;2022-11-15T03:39:54;101304.91;;;7.89;100.00
48077;BME280;33854;57.708;12.008;2022-11-15T03:42:46;101302.38;;;7.86;100.00
48077;BME280;33854;57.708;12.008;2022-11-15T03:45:46;101293.69;;;7.87;100.00
48077;BME280;33854;57.708;12.008;2022-11-15T03:48:22;101290.16;;;7.90;100.00
48077;BME280;33854;57.708;12.008;2022-11-15T03:50:49;101265.34;;;7.80;100.00
48077;BME280;33854;57.708;12.008;2022-11-15T03:53:16;101264.31;;;7.85;100.00
48077;BME280;33854;57.708;12.008;2022-11-15T03:55:42;101277.22;;;7.88;100.00
48077;BME280;33854;57.708;12.008;2022-11-15T03:58:07;101279.09;;;7.83;100.00
48077;BME280;33854;57.708;12.008;2022-11-15T04:00:33;101285.91;;;7.87;100.00
48077;BME280;33854;57.708;12.008;2022-11-15T04:02:58;101276.41;;;7.86;100.00
48077;BME280;33854;57.708;12.008;2022-11-15T04:05:24;101277.25;;;7.87;100.00
48077;BME280;33854;57.708;12.008;2022-11-15T04:07:49;101266.91;;;7.85;100.00
48077;BME280;33854;57.708;12.008;2022-11-15T04:10:15;101262.44;;;7.90;100.00
48077;BME280;33854;57.708;12.008;2022-11-15T04:12:43;101260.69;;;7.91;100.00
48077;BME280;33854;57.708;12.008;2022-11-15T04:15:11;101254.56;;;7.93;100.00
48077;BME280;33854;57.708;12.008;2022-11-15T04:17:52;101258.13;;;7.89;100.00
48077;BME280;33854;57.708;12.008;2022-11-15T04:20:20;101261.63;;;7.88;100.00
48077;BME280;33854;57.708;12.008;2022-11-15T04:23:10;101253.91;;;7.85;100.00
48077;BME280;33854;57.708;12.008;2022-11-15T04:25:55;101260.81;;;7.86;100.00
48077;BME280;33854;57.708;12.008;2022-11-15T04:28:22;101250.38;;;7.88;100.00
48077;BME280;33854;57.708;12.008;2022-11-15T04:30:47;101239.38;;;7.78;100.00
48077;BME280;33854;57.708;12.008;2022-11-15T04:33:13;101248.72;;;7.85;100.00
48077;BME280;33854;57.708;12.008;2022-11-15T04:35:39;101255.59;;;7.86;100.00
48077;BME280;33854;57.708;12.008;2022-11-15T04:38:06;101247.81;;;7.86;100.00
48077;BME280;33854;57.708;12.008;2022-11-15T04:40:31;101239.22;;;7.84;100.00
48077;BME280;33854;57.708;12.008;2022-11-15T04:42:57;101232.44;;;7.79;100.00
48077;BME280;33854;57.708;12.008;2022-11-15T04:45:22;101224.63;;;7.80;100.00
48077;BME280;33854;57.708;12.008;2022-11-15T04:47:48;101240.22;;;7.80;100.00
48077;BME280;33854;57.708;12.008;2022-11-15T04:50:14;101246.22;;;7.82;100.00
48077;BME280;33854;57.708;12.008;2022-11-15T04:52:46;101249.66;;;7.83;100.00
48077;BME280;33854;57.708;12.008;2022-11-15T04:55:15;101243.56;;;7.84;100.00
48077;BME280;33854;57.708;12.008;2022-11-15T04:57:40;101240.88;;;7.87;100.00
48077;BME280;33854;57.708;12.008;2022-11-15T05:00:08;101232.22;;;7.86;100.00
48077;BME280;33854;57.708;12.008;2022-11-15T05:02:34;101232.28;;;7.85;100.00
48077;BME280;33854;57.708;12.008;2022-11-15T05:05:18;101231.50;;;7.81;100.00
48077;BME280;33854;57.708;12.008;2022-11-15T05:07:44;101228.03;;;7.81;100.00
48077;BME280;33854;57.708;12.008;2022-11-15T05:10:09;101229.81;;;7.80;100.00
48077;BME280;33854;57.708;12.008;2022-11-15T05:12:35;101227.16;;;7.82;100.00
48077;BME280;33854;57.708;12.008;2022-11-15T05:15:00;101215.25;;;7.73;100.00
48077;BME280;33854;57.708;12.008;2022-11-15T05:17:26;101235.03;;;7.79;100.00
48077;BME280;33854;57.708;12.008;2022-11-15T05:19:51;101228.97;;;7.80;100.00
48077;BME280;33854;57.708;12.008;2022-11-15T05:22:18;101227.94;;;7.85;100.00
48077;BME280;33854;57.708;12.008;2022-11-15T05:24:43;101227.13;;;7.83;100.00
48077;BME280;33854;57.708;12.008;2022-11-15T05:27:09;101236.75;;;7.80;100.00
48077;BME280;33854;57.708;12.008;2022-11-15T05:29:34;101232.44;;;7.79;100.00
48077;BME280;33854;57.708;12.008;2022-11-15T05:31:59;101238.50;;;7.79;100.00
48077;BME280;33854;57.708;12.008;2022-11-15T05:34:25;101235.00;;;7.80;100.00
48077;BME280;33854;57.708;12.008;2022-11-15T05:36:52;101232.50;;;7.76;100.00
48077;BME280;33854;57.708;12.008;2022-11-15T05:39:17;101235.09;;;7.77;100.00
48077;BME280;33854;57.708;12.008;2022-11-15T05:41:52;101244.50;;;7.81;100.00
48077;BME280;33854;57.708;12.008;2022-11-15T05:44:21;101233.22;;;7.82;100.00
48077;BME280;33854;57.708;12.008;2022-11-15T05:46:48;101237.56;;;7.82;100.00
48077;BME280;33854;57.708;12.008;2022-11-15T05:49:17;101233.31;;;7.78;100.00
48077;BME280;33854;57.708;12.008;2022-11-15T05:51:45;101240.22;;;7.80;100.00
48077;BME280;33854;57.708;12.008;2022-11-15T05:54:12;101245.41;;;7.80;100.00
48077;BME280;33854;57.708;12.008;2022-11-15T05:56:38;101248.09;;;7.76;100.00
48077;BME280;33854;57.708;12.008;2022-11-15T05:59:05;101258.41;;;7.80;100.00
48077;BME280;33854;57.708;12.008;2022-11-15T06:01:31;101242.06;;;7.75;100.00
48077;BME280;33854;57.708;12.008;2022-11-15T06:03:56;101257.56;;;7.78;100.00
48077;BME280;33854;57.708;12.008;2022-11-15T06:06:21;101243.84;;;7.73;100.00
48077;BME280;33854;57.708;12.008;2022-11-15T06:08:47;101247.16;;;7.78;100.00
48077;BME280;33854;57.708;12.008;2022-11-15T06:11:13;101254.81;;;7.84;100.00
48077;BME280;33854;57.708;12.008;2022-11-15T06:13:38;101249.66;;;7.83;100.00
48077;BME280;33854;57.708;12.008;2022-11-15T06:16:04;101235.97;;;7.76;100.00
48077;BME280;33854;57.708;12.008;2022-11-15T06:18:32;101241.81;;;7.84;100.00
48077;BME280;33854;57.708;12.008;2022-11-15T06:20:59;101237.63;;;7.79;100.00
48077;BME280;33854;57.708;12.008;2022-11-15T06:23:25;101241.00;;;7.82;100.00
48077;BME280;33854;57.708;12.008;2022-11-15T06:25:50;101247.94;;;7.83;100.00
48077;BME280;33854;57.708;12.008;2022-11-15T06:28:15;101253.13;;;7.82;100.00
48077;BME280;33854;57.708;12.008;2022-11-15T06:30:41;101250.69;;;7.77;100.00
48077;BME280;33854;57.708;12.008;2022-11-15T06:33:06;101262.69;;;7.81;100.00
48077;BME280;33854;57.708;12.008;2022-11-15T06:35:34;101261.81;;;7.81;100.00
48077;BME280;33854;57.708;12.008;2022-11-15T06:38:09;101260.06;;;7.81;100.00
48077;BME280;33854;57.708;12.008;2022-11-15T06:40:35;101266.19;;;7.80;100.00
48077;BME280;33854;57.708;12.008;2022-11-15T06:43:02;101256.59;;;7.82;100.00
48077;BME280;33854;57.708;12.008;2022-11-15T06:45:28;101262.69;;;7.81;100.00
48077;BME280;33854;57.708;12.008;2022-11-15T06:47:53;101265.34;;;7.80;100.00
48077;BME280;33854;57.708;12.008;2022-11-15T06:50:19;101255.78;;;7.80;100.00
48077;BME280;33854;57.708;12.008;2022-11-15T06:52:44;101259.28;;;7.79;100.00
48077;BME280;33854;57.708;12.008;2022-11-15T06:55:09;101259.28;;;7.78;100.00
48077;BME280;33854;57.708;12.008;2022-11-15T06:57:36;101270.47;;;7.81;100.00
48077;BME280;33854;57.708;12.008;2022-11-15T07:00:03;101264.47;;;7.79;100.00
48077;BME280;33854;57.708;12.008;2022-11-15T07:02:29;101264.47;;;7.79;100.00
48077;BME280;33854;57.708;12.008;2022-11-15T07:04:54;101269.50;;;7.85;100.00
48077;BME280;33854;57.708;12.008;2022-11-15T07:07:19;101271.31;;;7.83;100.00
48077;BME280;33854;57.708;12.008;2022-11-15T07:09:45;101275.72;;;7.80;100.00
48077;BME280;33854;57.708;12.008;2022-11-15T07:12:10;101284.31;;;7.83;100.00
48077;BME280;33854;57.708;12.008;2022-11-15T07:14:36;101290.31;;;7.85;100.00
48077;BME280;33854;57.708;12.008;2022-11-15T07:17:03;101293.78;;;7.84;100.00
48077;BME280;33854;57.708;12.008;2022-11-15T07:19:29;101293.91;;;7.80;100.00
48077;BME280;33854;57.708;12.008;2022-11-15T07:21:55;101309.28;;;7.87;100.00
48077;BME280;33854;57.708;12.008;2022-11-15T07:24:20;101310.31;;;7.82;100.00
48077;BME280;33854;57.708;12.008;2022-11-15T07:26:45;101324.09;;;7.85;100.00
48077;BME280;33854;57.708;12.008;2022-11-15T07:29:11;101312.88;;;7.83;100.00
48077;BME280;33854;57.708;12.008;2022-11-15T07:31:36;101337.16;;;7.82;100.00
48077;BME280;33854;57.708;12.008;2022-11-15T07:34:02;101337.97;;;7.84;100.00
48077;BME280;33854;57.708;12.008;2022-11-15T07:36:27;101355.13;;;7.91;100.00
48077;BME280;33854;57.708;12.008;2022-11-15T07:38:53;101356.81;;;7.92;100.00
48077;BME280;33854;57.708;12.008;2022-11-15T07:41:18;101356.88;;;7.89;100.00
48077;BME280;33854;57.708;12.008;2022-11-15T07:43:43;101367.97;;;7.97;100.00
48077;BME280;33854;57.708;12.008;2022-11-15T07:46:09;101374.84;;;7.98;100.00
48077;BME280;33854;57.708;12.008;2022-11-15T07:48:38;101380.03;;;8.00;100.00
48077;BME280;33854;57.708;12.008;2022-11-15T07:51:06;101384.28;;;8.02;100.00
48077;BME280;33854;57.708;12.008;2022-11-15T07:53:31;101386.81;;;8.06;100.00
48077;BME280;33854;57.708;12.008;2022-11-15T07:55:57;101386.88;;;8.02;100.00
48077;BME280;33854;57.708;12.008;2022-11-15T07:58:22;101394.63;;;8.04;100.00
48077;BME280;33854;57.708;12.008;2022-11-15T08:00:47;101386.91;;;8.01;100.00
48077;BME280;33854;57.708;12.008;2022-11-15T08:03:15;101390.22;;;8.08;100.00
48077;BME280;33854;57.708;12.008;2022-11-15T08:05:41;101396.28;;;8.08;100.00
48077;BME280;33854;57.708;12.008;2022-11-15T08:08:09;101397.06;;;8.10;100.00
48077;BME280;33854;57.708;12.008;2022-11-15T08:10:35;101393.63;;;8.10;100.00
48077;BME280;33854;57.708;12.008;2022-11-15T08:13:05;101398.91;;;8.07;100.00
48077;BME280;33854;57.708;12.008;2022-11-15T08:15:32;101412.81;;;8.06;100.00
48077;BME280;33854;57.708;12.008;2022-11-15T08:17:59;101412.81;;;8.04;100.00
48077;BME280;33854;57.708;12.008;2022-11-15T08:20:26;101408.50;;;8.04;100.00
48077;BME280;33854;57.708;12.008;2022-11-15T08:22:55;101399.81;;;8.04;100.00
48077;BME280;33854;57.708;12.008;2022-11-15T08:25:20;101411.88;;;8.08;100.00
48077;BME280;33854;57.708;12.008;2022-11-15T08:27:46;101401.69;;;7.99;100.00
48077;BME280;33854;57.708;12.008;2022-11-15T08:30:12;101414.41;;;8.10;100.00
48077;BME280;33854;57.708;12.008;2022-11-15T08:32:38;101426.47;;;8.14;100.00
48077;BME280;33854;57.708;12.008;2022-11-15T08:35:04;101422.13;;;8.14;100.00
48077;BME280;33854;57.708;12.008;2022-11-15T08:37:30;101423.72;;;8.18;100.00
48077;BME280;33854;57.708;12.008;2022-11-15T08:39:55;101409.16;;;8.13;100.00
48077;BME280;33854;57.708;12.008;2022-11-15T08:42:20;101424.66;;;8.17;100.00
48077;BME280;33854;57.708;12.008;2022-11-15T08:44:46;101416.84;;;8.17;100.00
48077;BME280;33854;57.708;12.008;2022-11-15T08:47:11;101425.38;;;8.22;100.00
48077;BME280;33854;57.708;12.008;2022-11-15T08:49:37;101415.19;;;8.13;100.00
48077;BME280;33854;57.708;12.008;2022-11-15T08:52:03;101437.56;;;8.20;100.00
48077;BME280;33854;57.708;12.008;2022-11-15T08:54:28;101423.53;;;8.27;100.00
48077;BME280;33854;57.708;12.008;2022-11-15T08:56:54;101427.91;;;8.25;100.00
48077;BME280;33854;57.708;12.008;2022-11-15T08:59:19;101417.63;;;8.21;100.00
48077;BME280;33854;57.708;12.008;2022-11-15T09:01:44;101440.00;;;8.28;100.00
48077;BME280;33854;57.708;12.008;2022-11-15T09:04:10;101444.31;;;8.29;100.00
48077;BME280;33854;57.708;12.008;2022-11-15T09:06:35;101448.59;;;8.30;100.00
48077;BME280;33854;57.708;12.008;2022-11-15T09:09:01;101440.78;;;8.31;100.00
48077;BME280;33854;57.708;12.008;2022-11-15T09:11:26;101442.47;;;8.32;100.00
48077;BME280;33854;57.708;12.008;2022-11-15T09:13:53;101441.56;;;8.35;100.00
48077;BME280;33854;57.708;12.008;2022-11-15T09:16:18;101434.50;;;8.40;100.00
48077;BME280;33854;57.708;12.008;2022-11-15T09:18:44;101425.19;;;8.31;100.00
48077;BME280;33854;57.708;12.008;2022-11-15T09:21:09;101434.56;;;8.37;100.00
48077;BME280;33854;57.708;12.008;2022-11-15T09:23:35;101413.03;;;8.32;100.00
48077;BME280;33854;57.708;12.008;2022-11-15T09:26:01;101439.53;;;8.46;100.00
48077;BME280;33854;57.708;12.008;2022-11-15T09:28:28;101434.28;;;8.47;100.00
48077;BME280;33854;57.708;12.008;2022-11-15T09:30:58;101449.03;;;8.47;100.00
48077;BME280;33854;57.708;12.008;2022-11-15T09:33:25;101448.19;;;8.46;100.00
48077;BME280;33854;57.708;12.008;2022-11-15T09:35:51;101444.81;;;8.43;100.00
48077;BME280;33854;57.708;12.008;2022-11-15T09:38:17;101458.50;;;8.49;100.00
48077;BME280;33854;57.708;12.008;2022-11-15T09:40:42;101452.63;;;8.43;100.00
48077;BME280;33854;57.708;12.008;2022-11-15T09:48:54;101448.06;;;8.51;100.00
48077;BME280;33854;57.708;12.008;2022-11-15T09:51:37;101438.59;;;8.48;100.00
48077;BME280;33854;57.708;12.008;2022-11-15T09:54:22;101449.72;;;8.55;100.00
48077;BME280;33854;57.708;12.008;2022-11-15T09:56:51;101449.72;;;8.55;100.00
48077;BME280;33854;57.708;12.008;2022-11-15T10:04:29;101440.06;;;8.58;100.00
48077;BME280;33854;57.708;12.008;2022-11-15T10:09:55;101458.19;;;8.62;100.00
48077;BME280;33854;57.708;12.008;2022-11-15T10:12:22;101458.25;;;8.60;100.00
48077;BME280;33854;57.708;12.008;2022-11-15T10:14:50;101459.03;;;8.62;100.00
48077;BME280;33854;57.708;12.008;2022-11-15T10:17:28;101465.91;;;8.65;100.00
48077;BME280;33854;57.708;12.008;2022-11-15T10:20:20;101459.66;;;8.72;100.00
48077;BME280;33854;57.708;12.008;2022-11-15T10:22:51;101461.31;;;8.74;100.00
48077;BME280;33854;57.708;12.008;2022-11-15T10:25:29;101470.84;;;8.75;100.00
48077;BME280;33854;57.708;12.008;2022-11-15T10:30:41;101478.66;;;8.75;100.00
48077;BME280;33854;57.708;12.008;2022-11-15T10:46:43;101494.94;;;8.82;100.00
48077;BME280;33854;57.708;12.008;2022-11-15T10:49:18;101505.25;;;8.86;100.00
48077;BME280;33854;57.708;12.008;2022-11-15T10:51:48;101512.19;;;8.86;100.00
48077;BME280;33854;57.708;12.008;2022-11-15T10:56:53;101501.72;;;8.89;100.00
48077;BME280;33854;57.708;12.008;2022-11-15T10:59:31;101506.06;;;8.88;100.00
48077;BME280;33854;57.708;12.008;2022-11-15T11:01:59;101506.19;;;8.84;100.00
48077;BME280;33854;57.708;12.008;2022-11-15T11:04:24;101506.28;;;8.81;100.00
48077;BME280;33854;57.708;12.008;2022-11-15T11:06:58;101505.34;;;8.82;100.00
48077;BME280;33854;57.708;12.008;2022-11-15T11:09:31;101501.81;;;8.84;100.00
48077;BME280;33854;57.708;12.008;2022-11-15T11:11:57;101488.97;;;8.78;100.00
48077;BME280;33854;57.708;12.008;2022-11-15T11:14:31;101495.03;;;8.79;100.00
48077;BME280;33854;57.708;12.008;2022-11-15T11:17:11;101479.25;;;8.85;100.00
48077;BME280;33854;57.708;12.008;2022-11-15T11:22:30;101467.19;;;8.82;100.00
48077;BME280;33854;57.708;12.008;2022-11-15T11:27:51;101468.06;;;8.81;100.00
48077;BME280;33854;57.708;12.008;2022-11-15T11:30:37;101467.97;;;8.84;100.00
48077;BME280;33854;57.708;12.008;2022-11-15T11:33:06;101465.34;;;8.86;100.00
48077;BME280;33854;57.708;12.008;2022-11-15T11:36:06;101472.25;;;8.87;100.00
48077;BME280;33854;57.708;12.008;2022-11-15T11:38:44;101471.34;;;8.89;100.00
48077;BME280;33854;57.708;12.008;2022-11-15T11:41:38;101468.72;;;8.89;100.00
48077;BME280;33854;57.708;12.008;2022-11-15T11:49:56;101473.84;;;8.92;100.00
48077;BME280;33854;57.708;12.008;2022-11-15T11:52:34;101473.53;;;9.03;100.00
48077;BME280;33854;57.708;12.008;2022-11-15T11:57:48;101468.97;;;9.11;100.00
48077;BME280;33854;57.708;12.008;2022-11-15T12:03:22;101474.97;;;9.13;100.00
48077;BME280;33854;57.708;12.008;2022-11-15T12:05:57;101484.09;;;9.28;100.00
48077;BME280;33854;57.708;12.008;2022-11-15T12:08:53;101491.13;;;9.26;100.00
48077;BME280;33854;57.708;12.008;2022-11-15T12:11:26;101501.72;;;9.20;100.00
48077;BME280;33854;57.708;12.008;2022-11-15T12:13:58;101501.56;;;9.24;100.00
48077;BME280;33854;57.708;12.008;2022-11-15T12:16:32;101509.44;;;9.23;100.00
48077;BME280;33854;57.708;12.008;2022-11-15T12:19:01;101510.41;;;9.18;100.00
48077;BME280;33854;57.708;12.008;2022-11-15T12:24:40;101512.94;;;9.22;100.00
48077;BME280;33854;57.708;12.008;2022-11-15T12:27:16;101501.72;;;9.20;100.00
48077;BME280;33854;57.708;12.008;2022-11-15T12:29:46;101500.19;;;9.12;100.00
48077;BME280;33854;57.708;12.008;2022-11-15T12:32:30;101502.66;;;9.17;100.00
48077;BME280;33854;57.708;12.008;2022-11-15T12:34:56;101502.69;;;9.15;100.00
48077;BME280;33854;57.708;12.008;2022-11-15T12:40:24;101486.94;;;9.20;100.00
48077;BME280;33854;57.708;12.008;2022-11-15T12:45:29;101475.59;;;9.23;100.00
48077;BME280;33854;57.708;12.008;2022-11-15T13:01:08;101409.25;;;9.05;100.00
48077;BME280;33854;57.708;12.008;2022-11-15T13:03:34;101405.63;;;9.10;100.00
48077;BME280;33854;57.708;12.008;2022-11-15T13:06:03;101395.91;;;9.15;100.00
48077;BME280;33854;57.708;12.008;2022-11-15T13:08:40;101390.91;;;9.09;100.00
48077;BME280;33854;57.708;12.008;2022-11-15T13:17:34;101337.91;;;8.81;100.00
48077;BME280;33854;57.708;12.008;2022-11-15T13:22:41;101313.31;;;8.64;100.00
48077;BME280;33854;57.708;12.008;2022-11-15T13:27:50;101290.09;;;8.56;100.00
48077;BME280;33854;57.708;12.008;2022-11-15T13:30:23;101284.03;;;8.55;100.00
48077;BME280;33854;57.708;12.008;2022-11-15T13:32:50;101278.19;;;8.49;100.00
48077;BME280;33854;57.708;12.008;2022-11-15T13:35:27;101273.25;;;8.40;100.00
48077;BME280;33854;57.708;12.008;2022-11-15T13:37:53;101265.53;;;8.35;100.00
48077;BME280;33854;57.708;12.008;2022-11-15T13:42:47;101237.16;;;8.28;100.00
48077;BME280;33854;57.708;12.008;2022-11-15T13:45:15;101250.16;;;8.28;100.00
48077;BME280;33854;57.708;12.008;2022-11-15T13:47:41;101253.63;;;8.28;100.00
48077;BME280;33854;57.708;12.008;2022-11-15T13:50:11;101261.38;;;8.30;100.00
48077;BME280;33854;57.708;12.008;2022-11-15T13:52:39;101268.38;;;8.28;100.00
48077;BME280;33854;57.708;12.008;2022-11-15T13:55:21;101277.03;;;8.27;100.00
48077;BME280;33854;57.708;12.008;2022-11-15T13:58:00;101284.03;;;8.25;100.00
48077;BME280;33854;57.708;12.008;2022-11-15T14:00:38;101285.06;;;8.19;100.00
48077;BME280;33854;57.708;12.008;2022-11-15T14:03:12;101294.44;;;8.25;100.00
48077;BME280;33854;57.708;12.008;2022-11-15T14:05:40;101292.06;;;8.17;100.00
48077;BME280;33854;57.708;12.008;2022-11-15T14:10:43;101309.34;;;8.18;100.00
48077;BME280;33854;57.708;12.008;2022-11-15T14:13:27;101312.75;;;8.20;100.00
48077;BME280;33854;57.708;12.008;2022-11-15T14:15:53;101313.72;;;8.18;100.00
48077;BME280;33854;57.708;12.008;2022-11-15T14:21:09;101304.41;;;8.09;100.00
48077;BME280;33854;57.708;12.008;2022-11-15T14:23:34;101305.22;;;8.11;100.00
48077;BME280;33854;57.708;12.008;2022-11-15T14:26:00;101299.06;;;8.14;100.00
48077;BME280;33854;57.708;12.008;2022-11-15T14:28:30;101294.97;;;8.05;100.00
48077;BME280;33854;57.708;12.008;2022-11-15T14:30:59;101295.91;;;8.02;100.00
48077;BME280;33854;57.708;12.008;2022-11-15T14:33:33;101299.44;;;8.00;100.00
48077;BME280;33854;57.708;12.008;2022-11-15T14:36:19;101294.44;;;7.92;100.00
48077;BME280;33854;57.708;12.008;2022-11-15T14:38:45;101287.66;;;7.87;100.00
48077;BME280;33854;57.708;12.008;2022-11-15T14:41:34;101286.84;;;7.85;100.00
48077;BME280;33854;57.708;12.008;2022-11-15T14:43:59;101281.78;;;7.80;100.00
48077;BME280;33854;57.708;12.008;2022-11-15T14:46:25;101282.53;;;7.84;100.00
48077;BME280;33854;57.708;12.008;2022-11-15T14:48:50;101279.19;;;7.80;100.00
48077;BME280;33854;57.708;12.008;2022-11-15T14:51:17;101282.88;;;7.72;100.00